Terminal Aerodrome Forecast
Issued by NWS Portland, OR

Home | Current Version | Previous Version | Text Only | Print | Product List | Glossary On
Versions: 1 2 3 4 5 6 7 8 9 10 11 12 13 14 15 16 17 18 19 20 21 22 23 24 25 26 27 28 29 30 31 32 33 34
000
FTUS46 KPQR 272324
TAFHIO
TAF
KHIO 272324Z 2800/2824 19011KT P6SM -SHRA BKN015 OVC035
     FM280300 16006KT 5SM -RA BR BKN012 OVC025
     FM281400 18010KT 4SM RA BR SCT008 BKN015 OVC030
     FM282300 25012G20KT 3SM RA BR BKN008 OVC020=

USA.gov is the U.S. government's official web portal to all federal, state and local government web resources and services.